createdAt,value
2018-01-14T00:00:40.468Z,12.23
2018-01-14T00:03:08.987Z,12.53
2018-01-14T00:05:37.583Z,12.33
2018-01-14T00:08:06.159Z,12.00
2018-01-14T00:10:35.495Z,13.97
2018-01-14T00:13:04.101Z,12.83
2018-01-14T00:15:32.682Z,12.67
2018-01-14T00:18:01.258Z,13.93
2018-01-14T00:20:29.836Z,12.27
2018-01-14T00:22:58.413Z,12.93
2018-01-14T00:25:26.998Z,12.13
2018-01-14T00:27:55.590Z,13.43
2018-01-14T00:30:24.201Z,13.57
2018-01-14T00:32:52.760Z,12.87
2018-01-14T00:35:21.359Z,13.40
2018-01-14T00:37:49.965Z,13.03
2018-01-14T00:40:18.524Z,13.17
2018-01-14T00:42:47.173Z,12.90
2018-01-14T00:45:16.535Z,12.67
2018-01-14T00:47:45.090Z,15.07
2018-01-14T00:50:13.651Z,12.90
2018-01-14T00:52:42.293Z,12.83
2018-01-14T00:55:10.875Z,12.83
2018-01-14T00:57:39.480Z,13.73
2018-01-14T01:00:08.144Z,14.60
2018-01-14T01:02:36.711Z,14.73
2018-01-14T01:05:05.266Z,13.60
2018-01-14T01:07:34.593Z,15.10
2018-01-14T01:10:03.148Z,14.00
2018-01-14T01:12:32.525Z,14.70
2018-01-14T01:15:01.059Z,14.53
2018-01-14T01:17:30.384Z,14.97
2018-01-14T01:19:58.958Z,14.83
2018-01-14T01:22:27.516Z,14.80
2018-01-14T01:24:56.057Z,15.63
2018-01-14T01:27:24.651Z,15.30
2018-01-14T01:29:53.236Z,15.67
2018-01-14T01:32:21.810Z,13.60
2018-01-14T01:34:50.388Z,15.67
2018-01-14T01:37:18.978Z,15.23
2018-01-14T01:39:47.583Z,16.73
2018-01-14T01:42:17.122Z,14.67
2018-01-14T01:44:45.706Z,15.43
2018-01-14T01:47:14.309Z,15.90
2018-01-14T01:49:43.645Z,16.43
2018-01-14T01:52:12.205Z,15.77
2018-01-14T01:54:40.782Z,15.30
2018-01-14T01:57:10.193Z,16.40
2018-01-14T01:59:39.523Z,16.67
2018-01-14T02:02:08.036Z,17.20
2018-01-14T02:04:36.600Z,17.70
2018-01-14T02:07:05.177Z,17.17
2018-01-14T02:09:33.710Z,16.70
2018-01-14T02:12:02.290Z,18.63
2018-01-14T02:14:34.017Z,18.43
2018-01-14T02:17:02.622Z,18.53
2018-01-14T02:19:30.924Z,17.17
2018-01-14T02:21:59.517Z,18.37
2018-01-14T02:24:28.124Z,17.07
2018-01-14T02:26:56.711Z,18.43
2018-01-14T02:29:26.060Z,19.53
2018-01-14T02:31:54.629Z,19.23
2018-01-14T02:34:23.192Z,19.33
2018-01-14T02:36:51.604Z,18.70
2018-01-14T02:39:20.211Z,19.10
2018-01-14T02:41:48.826Z,20.37
2018-01-14T02:44:17.428Z,20.10
2018-01-14T02:46:46.040Z,19.10
2018-01-14T02:49:14.635Z,20.27
2018-01-14T02:51:42.861Z,19.53
2018-01-14T02:54:11.469Z,19.73
2018-01-14T02:56:40.073Z,21.07
2018-01-14T02:59:08.674Z,20.30
2018-01-14T03:01:37.265Z,19.17
2018-01-14T03:04:05.844Z,21.40
2018-01-14T03:06:34.364Z,20.37
2018-01-14T03:09:02.827Z,17.90
2018-01-14T03:11:31.420Z,20.97
2018-01-14T03:13:59.982Z,20.70
2018-01-14T03:16:28.602Z,20.20
2018-01-14T03:18:57.206Z,20.90
2018-01-14T03:21:25.769Z,21.30
2018-01-14T03:23:54.373Z,20.20
2018-01-14T03:26:23.768Z,22.23
2018-01-14T03:28:52.384Z,21.03
2018-01-14T03:31:21.743Z,21.37
2018-01-14T03:33:50.320Z,20.00
2018-01-14T03:36:18.917Z,20.67
2018-01-14T03:38:47.497Z,20.83
2018-01-14T03:41:16.097Z,18.77
2018-01-14T03:43:46.931Z,21.73
2018-01-14T03:46:16.538Z,21.20
2018-01-14T03:48:46.082Z,21.37
2018-01-14T03:51:15.686Z,21.23
2018-01-14T03:53:45.274Z,20.43
2018-01-14T03:56:14.897Z,20.93
2018-01-14T03:58:44.463Z,22.13
2018-01-14T04:01:14.011Z,21.80
2018-01-14T04:03:43.614Z,20.93
2018-01-14T04:06:13.206Z,20.53
2018-01-14T04:08:42.827Z,19.63
2018-01-14T04:11:12.426Z,20.50
2018-01-14T04:13:42.065Z,18.93
2018-01-14T04:16:11.683Z,19.40
2018-01-14T04:18:41.263Z,19.50
2018-01-14T04:21:10.863Z,19.57
2018-01-14T04:23:40.489Z,18.97
2018-01-14T04:26:10.078Z,18.80
2018-01-14T04:28:39.674Z,19.87
2018-01-14T04:31:09.269Z,19.80
2018-01-14T04:33:38.846Z,19.17
2018-01-14T04:36:08.455Z,18.80
2018-01-14T04:38:38.039Z,19.40
2018-01-14T04:41:07.650Z,17.80
2018-01-14T04:43:37.244Z,19.57
2018-01-14T04:46:06.861Z,17.43
2018-01-14T04:48:36.463Z,17.47
2018-01-14T04:51:06.047Z,19.00
2018-01-14T04:53:35.647Z,18.27
2018-01-14T04:56:05.209Z,18.27
2018-01-14T04:58:34.806Z,17.83
2018-01-14T05:01:04.461Z,17.80
2018-01-14T05:03:34.208Z,17.13
2018-01-14T05:06:03.812Z,18.13
2018-01-14T05:08:33.380Z,17.93
2018-01-14T05:11:03.017Z,18.97
2018-01-14T05:13:32.819Z,17.73
2018-01-14T05:16:02.404Z,17.90
2018-01-14T05:18:31.999Z,17.80
2018-01-14T05:21:01.602Z,16.10
2018-01-14T05:23:31.190Z,16.67
2018-01-14T05:26:00.796Z,17.30
2018-01-14T05:28:30.402Z,18.20
2018-01-14T05:31:00.010Z,16.47
2018-01-14T05:33:29.616Z,16.80
2018-01-14T05:35:59.184Z,18.83
2018-01-14T05:38:28.808Z,17.90
2018-01-14T05:40:58.408Z,16.60
2018-01-14T05:43:28.037Z,16.37
2018-01-14T05:45:57.809Z,15.43
2018-01-14T05:48:27.358Z,16.03
2018-01-14T05:50:56.967Z,14.53
2018-01-14T05:53:26.570Z,15.07
2018-01-14T05:55:56.356Z,16.17
2018-01-14T05:58:25.946Z,15.40
2018-01-14T06:00:55.551Z,15.77
2018-01-14T06:03:25.159Z,15.73
2018-01-14T06:05:54.774Z,15.83
2018-01-14T06:08:24.391Z,15.63
2018-01-14T06:10:54.002Z,15.67
2018-01-14T06:13:23.584Z,14.67
2018-01-14T06:15:53.196Z,15.30
2018-01-14T06:18:22.781Z,14.47
2018-01-14T06:20:52.396Z,13.80
2018-01-14T06:23:22.003Z,14.47
2018-01-14T06:25:51.620Z,14.57
2018-01-14T06:28:21.218Z,14.50
2018-01-14T06:30:50.801Z,14.80
2018-01-14T06:33:20.454Z,14.10
2018-01-14T06:35:50.138Z,13.97
2018-01-14T06:38:19.761Z,13.03
2018-01-14T06:40:49.352Z,11.90
2018-01-14T06:43:18.953Z,13.63
2018-01-14T06:45:48.599Z,13.33
2018-01-14T06:48:18.145Z,12.27
2018-01-14T06:50:47.757Z,14.47
2018-01-14T06:53:17.368Z,13.67
2018-01-14T06:55:46.954Z,13.87
2018-01-14T06:58:16.541Z,12.73
2018-01-14T07:00:46.126Z,12.87
2018-01-14T07:03:15.710Z,14.37
2018-01-14T07:05:45.314Z,12.30
2018-01-14T07:08:14.924Z,12.73
2018-01-14T07:10:44.504Z,12.63
2018-01-14T07:13:14.098Z,12.90
2018-01-14T07:15:43.666Z,13.00
2018-01-14T07:18:13.238Z,12.17
2018-01-14T07:20:42.844Z,11.10
2018-01-14T07:23:12.438Z,11.50
2018-01-14T07:25:42.018Z,12.70
2018-01-14T07:28:11.604Z,12.60
2018-01-14T07:30:41.191Z,13.00
2018-01-14T07:33:10.821Z,13.17
2018-01-14T07:35:40.416Z,14.17
2018-01-14T07:38:10.025Z,13.00
2018-01-14T07:40:39.610Z,12.87
2018-01-14T07:43:09.234Z,12.57
2018-01-14T07:45:38.827Z,13.13
2018-01-14T07:48:08.428Z,11.90
2018-01-14T07:50:38.062Z,12.60
2018-01-14T07:53:07.654Z,13.53
2018-01-14T07:55:37.226Z,14.40
2018-01-14T07:58:06.818Z,16.20
2018-01-14T08:00:36.420Z,13.60
2018-01-14T08:03:06.004Z,14.53
2018-01-14T08:05:35.618Z,13.93
2018-01-14T08:08:05.196Z,12.90
2018-01-14T08:10:34.779Z,12.00
2018-01-14T08:13:04.349Z,12.17
2018-01-14T08:15:33.935Z,14.70
2018-01-14T08:18:03.521Z,13.37
2018-01-14T08:20:33.088Z,12.47
2018-01-14T08:23:02.726Z,12.57
2018-01-14T08:25:32.491Z,12.73
2018-01-14T08:28:02.105Z,15.00
2018-01-14T08:30:31.727Z,12.40
2018-01-14T08:33:01.319Z,12.50
2018-01-14T08:35:30.930Z,15.03
2018-01-14T08:38:00.515Z,20.63
2018-01-14T08:40:30.084Z,14.63
2018-01-14T08:42:59.689Z,14.97
2018-01-14T08:45:28.969Z,16.77
2018-01-14T08:47:58.584Z,14.93
2018-01-14T08:50:28.194Z,13.00
2018-01-14T08:53:05.097Z,12.23
2018-01-14T08:55:34.699Z,13.47
2018-01-14T08:58:04.300Z,14.30
2018-01-14T09:00:33.922Z,14.87
2018-01-14T09:03:03.531Z,12.27
2018-01-14T09:05:33.120Z,12.47
2018-01-14T09:08:02.786Z,11.47
2018-01-14T09:10:32.377Z,12.37
2018-01-14T09:13:01.947Z,11.80
2018-01-14T09:15:32.410Z,11.27
2018-01-14T09:18:02.109Z,10.67
2018-01-14T09:20:31.759Z,11.70
2018-01-14T09:23:01.406Z,12.83
2018-01-14T09:25:30.991Z,15.47
2018-01-14T09:28:00.686Z,11.57
2018-01-14T09:30:35.783Z,10.90
2018-01-14T09:33:05.410Z,10.63
2018-01-14T09:35:35.017Z,11.20
2018-01-14T09:38:04.678Z,10.67
2018-01-14T09:40:39.859Z,11.93
2018-01-14T09:43:09.648Z,11.07
2018-01-14T09:45:39.205Z,10.90
2018-01-14T09:48:08.866Z,13.03
2018-01-14T09:50:38.477Z,11.30
2018-01-14T09:53:08.154Z,11.40
2018-01-14T09:55:37.868Z,9.80
2018-01-14T09:58:06.474Z,10.87
2018-01-14T10:00:35.123Z,10.10
2018-01-14T10:03:06.787Z,10.67
2018-01-14T10:05:35.425Z,9.50
2018-01-14T10:08:04.010Z,9.50
2018-01-14T10:10:32.599Z,8.53
2018-01-14T10:13:01.273Z,8.43
2018-01-14T10:15:29.878Z,9.03
2018-01-14T10:17:58.427Z,7.70
2018-01-14T10:20:27.050Z,7.60
2018-01-14T10:22:55.784Z,7.93
2018-01-14T10:25:25.158Z,7.73
2018-01-14T10:27:53.788Z,8.37
2018-01-14T10:30:22.068Z,7.70
2018-01-14T10:32:50.626Z,8.23
2018-01-14T10:35:19.225Z,8.23
2018-01-14T10:37:47.837Z,8.00
2018-01-14T10:40:16.414Z,8.07
2018-01-14T10:42:45.013Z,8.33
2018-01-14T10:45:13.650Z,8.20
2018-01-14T10:47:42.998Z,8.23
2018-01-14T10:50:11.620Z,8.03
2018-01-14T10:52:40.215Z,8.57
2018-01-14T10:55:08.826Z,7.77
2018-01-14T10:57:39.521Z,8.10
2018-01-14T11:00:08.137Z,8.00
2018-01-14T11:02:36.671Z,8.57
2018-01-14T11:05:05.226Z,8.03
2018-01-14T11:07:33.816Z,8.93
2018-01-14T11:10:02.240Z,9.30
2018-01-14T11:12:30.829Z,8.27
2018-01-14T11:14:59.407Z,9.03
2018-01-14T11:17:28.019Z,8.90
2018-01-14T11:19:57.380Z,8.57
2018-01-14T11:22:25.992Z,8.87
2018-01-14T11:24:54.695Z,7.93
2018-01-14T11:27:22.952Z,8.77
2018-01-14T11:30:03.165Z,8.83
2018-01-14T11:32:31.769Z,9.37
2018-01-14T11:35:00.344Z,9.67
2018-01-14T11:37:28.952Z,9.17
2018-01-14T11:39:58.304Z,8.60
2018-01-14T11:42:28.673Z,9.70
2018-01-14T11:45:00.175Z,8.40
2018-01-14T11:47:28.775Z,9.57
2018-01-14T11:49:58.121Z,8.17
2018-01-14T11:52:26.728Z,8.10
2018-01-14T11:54:55.357Z,6.70
2018-01-14T11:57:24.735Z,6.20
2018-01-14T11:59:53.279Z,7.40
2018-01-14T12:02:21.902Z,7.33
2018-01-14T12:04:50.465Z,7.87
2018-01-14T12:07:19.104Z,7.43
2018-01-14T12:09:49.466Z,7.07
2018-01-14T12:12:18.074Z,6.83
2018-01-14T12:14:46.530Z,7.50
2018-01-14T12:17:15.091Z,8.40
2018-01-14T12:19:44.411Z,7.80
2018-01-14T12:22:12.988Z,8.93
2018-01-14T12:24:42.334Z,9.00
2018-01-14T12:27:10.779Z,7.90
2018-01-14T12:29:39.388Z,8.73
2018-01-14T12:32:07.971Z,7.63
2018-01-14T12:34:40.836Z,8.37
2018-01-14T12:37:09.425Z,8.93
2018-01-14T12:39:38.756Z,10.97
2018-01-14T12:42:07.351Z,9.13
2018-01-14T12:44:36.838Z,8.70
2018-01-14T12:47:05.426Z,8.10
2018-01-14T12:49:34.104Z,8.90
2018-01-14T12:52:02.714Z,7.33
2018-01-14T12:54:32.005Z,8.23
2018-01-14T12:57:00.595Z,7.37
2018-01-14T12:59:29.159Z,8.13
2018-01-14T13:01:57.723Z,8.50
2018-01-14T13:04:26.327Z,9.73
2018-01-14T13:07:01.417Z,9.03
2018-01-14T13:09:40.865Z,7.77
2018-01-14T13:12:11.706Z,7.93
2018-01-14T13:14:45.885Z,7.80
2018-01-14T13:17:17.138Z,8.43
2018-01-14T13:19:45.759Z,8.87
2018-01-14T13:22:14.360Z,8.80
2018-01-14T13:24:43.719Z,8.60
2018-01-14T13:27:12.365Z,7.97
2018-01-14T13:29:41.882Z,7.67
2018-01-14T13:32:11.527Z,7.50
2018-01-14T13:34:40.132Z,7.23
2018-01-14T13:37:08.759Z,8.10
2018-01-14T13:39:38.144Z,8.20
2018-01-14T13:42:06.717Z,7.73
2018-01-14T13:44:35.330Z,7.70
2018-01-14T13:47:04.760Z,7.60
2018-01-14T13:49:33.337Z,8.53
2018-01-14T13:52:01.917Z,7.63
2018-01-14T13:54:31.232Z,7.57
2018-01-14T13:56:59.883Z,7.13
2018-01-14T13:59:28.439Z,7.40
2018-01-14T14:01:57.008Z,7.63
2018-01-14T14:04:25.640Z,8.70
2018-01-14T14:06:54.233Z,7.60
2018-01-14T14:09:22.899Z,7.10
2018-01-14T14:11:51.542Z,7.37
2018-01-14T14:14:20.117Z,7.40
2018-01-14T14:16:49.477Z,7.10
2018-01-14T14:19:18.073Z,7.27
2018-01-14T14:21:46.656Z,7.00
2018-01-14T14:24:15.177Z,7.43
2018-01-14T14:26:43.780Z,7.87
2018-01-14T14:29:12.368Z,6.70
2018-01-14T14:31:41.084Z,7.73
2018-01-14T14:34:09.693Z,7.37
2018-01-14T14:36:38.268Z,7.30
2018-01-14T14:39:06.958Z,6.90
2018-01-14T14:41:35.565Z,8.03
2018-01-14T14:44:04.262Z,8.77
2018-01-14T14:46:33.619Z,7.67
2018-01-14T14:49:02.246Z,7.23
2018-01-14T14:51:38.730Z,7.77
2018-01-14T14:54:08.211Z,8.00
2018-01-14T14:56:43.366Z,7.10
2018-01-14T14:59:12.704Z,8.80
2018-01-14T15:01:41.309Z,6.57
2018-01-14T15:04:09.953Z,7.60
2018-01-14T15:06:39.605Z,8.33
2018-01-14T15:09:08.225Z,9.20
2018-01-14T15:11:36.793Z,7.50
2018-01-14T15:14:08.839Z,7.87
2018-01-14T15:16:37.447Z,8.63
2018-01-14T15:19:06.034Z,8.00
2018-01-14T15:21:34.636Z,8.10
2018-01-14T15:24:03.259Z,9.77
2018-01-14T15:26:32.584Z,11.87
2018-01-14T15:29:07.891Z,12.70
2018-01-14T15:31:37.265Z,13.33
2018-01-14T15:34:06.897Z,17.03
2018-01-14T15:36:35.524Z,19.30
2018-01-14T15:39:04.275Z,16.17
2018-01-14T15:41:32.878Z,16.67
2018-01-14T15:44:02.296Z,16.83
2018-01-14T15:46:34.563Z,15.90
2018-01-14T15:49:03.675Z,14.90
2018-01-14T15:51:32.248Z,13.10
2018-01-14T15:54:00.891Z,13.53
2018-01-14T15:56:29.468Z,10.87
2018-01-14T15:58:58.177Z,10.50
2018-01-14T16:01:27.596Z,15.37
2018-01-14T16:03:56.260Z,11.43
2018-01-14T16:06:24.844Z,11.83
2018-01-14T16:08:53.465Z,10.97
2018-01-14T16:11:22.826Z,13.73
2018-01-14T16:13:51.375Z,11.80
2018-01-14T16:16:19.976Z,8.00
2018-01-14T16:18:48.595Z,7.20
2018-01-14T16:21:17.349Z,6.27
2018-01-14T16:23:45.908Z,7.67
2018-01-14T16:26:15.896Z,7.37
2018-01-14T16:28:51.556Z,8.53
2018-01-14T16:31:20.204Z,7.53
2018-01-14T16:33:48.750Z,7.87
2018-01-14T16:36:17.322Z,8.27
2018-01-14T16:38:45.965Z,7.63
2018-01-14T16:41:18.774Z,8.00
2018-01-14T16:43:47.366Z,7.97
2018-01-14T16:46:16.752Z,8.40
2018-01-14T16:48:45.392Z,7.90
2018-01-14T16:51:16.808Z,7.17
2018-01-14T16:53:45.356Z,7.20
2018-01-14T16:56:14.009Z,9.60
2018-01-14T16:58:42.603Z,9.73
2018-01-14T17:01:11.956Z,9.20
2018-01-14T17:03:40.560Z,8.00
2018-01-14T17:06:09.129Z,10.70
2018-01-14T17:08:37.769Z,13.33
2018-01-14T17:11:07.126Z,12.83
2018-01-14T17:13:35.719Z,11.60
2018-01-14T17:16:04.350Z,9.67
2018-01-14T17:18:33.684Z,8.97
2018-01-14T17:21:02.247Z,9.27
2018-01-14T17:23:30.866Z,9.50
2018-01-14T17:25:59.480Z,14.00
2018-01-14T17:28:28.091Z,13.37
2018-01-14T17:30:57.474Z,13.30
2018-01-14T17:33:26.047Z,14.17
2018-01-14T17:35:54.647Z,15.50
2018-01-14T17:38:23.272Z,23.33
2018-01-14T17:40:51.896Z,20.93
2018-01-14T17:43:20.496Z,16.27
2018-01-14T17:45:49.107Z,13.63
2018-01-14T17:48:17.715Z,13.53
2018-01-14T17:50:46.306Z,13.30
2018-01-14T17:53:14.897Z,12.73
2018-01-14T17:55:43.502Z,12.47
2018-01-14T17:58:12.872Z,10.90
2018-01-14T18:00:41.621Z,10.95
2018-01-14T18:03:10.452Z,10.10
2018-01-14T18:05:39.849Z,8.60
2018-01-14T18:08:08.486Z,10.00
2018-01-14T18:10:37.054Z,11.00
2018-01-14T18:13:05.626Z,10.77
2018-01-14T18:15:34.215Z,12.50
2018-01-14T18:18:02.831Z,11.40
2018-01-14T18:20:31.472Z,10.63
2018-01-14T18:23:00.355Z,10.85
2018-01-14T18:25:29.739Z,11.57
2018-01-14T18:27:58.632Z,12.23
2018-01-14T18:30:27.344Z,11.93
2018-01-14T18:32:56.293Z,12.35
2018-01-14T18:35:25.058Z,13.30
2018-01-14T18:37:54.268Z,16.10
2018-01-14T18:40:23.163Z,16.48
2018-01-14T18:42:52.779Z,15.13
2018-01-14T18:45:21.833Z,14.73
2018-01-14T18:47:51.169Z,15.60
2018-01-14T18:50:19.724Z,20.77
2018-01-14T18:52:48.574Z,22.45
2018-01-14T18:55:17.445Z,19.27
2018-01-14T18:57:46.013Z,16.87
2018-01-14T19:00:14.976Z,18.60
2018-01-14T19:02:59.655Z,26.30
2018-01-14T19:05:28.538Z,21.73
2018-01-14T19:07:57.411Z,17.98
2018-01-14T19:10:26.308Z,17.60
2018-01-14T19:12:55.923Z,14.60
2018-01-14T19:15:24.486Z,15.03
2018-01-14T19:17:53.348Z,15.60
2018-01-14T19:20:22.227Z,15.95
2018-01-14T19:22:51.127Z,15.60
2018-01-14T19:25:19.952Z,13.77
2018-01-14T19:27:48.828Z,14.73
2018-01-14T19:30:17.451Z,16.02
2018-01-14T19:32:46.286Z,24.60
2018-01-14T19:35:15.191Z,16.20
2018-01-14T19:37:44.058Z,18.60
2018-01-14T19:40:12.921Z,16.90
2018-01-14T19:42:41.485Z,15.53
2018-01-14T19:45:11.107Z,14.98
2018-01-14T19:47:39.944Z,14.45
2018-01-14T19:50:08.853Z,15.88
2018-01-14T19:52:37.764Z,16.52
2018-01-14T19:55:06.619Z,17.92
2018-01-14T19:57:35.460Z,17.35
2018-01-14T20:00:04.038Z,16.17
2018-01-14T20:02:33.653Z,22.20
2018-01-14T20:05:03.284Z,19.50
2018-01-14T20:07:32.129Z,21.35
2018-01-14T20:10:00.982Z,20.00
2018-01-14T20:12:29.829Z,17.50
2018-01-14T20:14:59.522Z,15.90
2018-01-14T20:17:28.360Z,18.25
2018-01-14T20:19:57.222Z,19.90
2018-01-14T20:22:26.061Z,21.73
2018-01-14T20:24:55.049Z,17.33
2018-01-14T20:27:23.959Z,16.60
2018-01-14T20:29:52.789Z,16.17
2018-01-14T20:32:22.431Z,14.23
2018-01-14T20:34:51.280Z,15.25
2018-01-14T20:37:20.180Z,15.85
2018-01-14T20:39:49.493Z,15.50
2018-01-14T20:42:23.463Z,15.52
2018-01-14T20:44:55.330Z,15.43
2018-01-14T20:47:24.216Z,14.75
2018-01-14T20:49:53.096Z,14.65
2018-01-14T20:52:21.910Z,16.05
2018-01-14T20:54:50.784Z,15.20
2018-01-14T20:57:19.668Z,15.05
2018-01-14T20:59:48.523Z,14.48
2018-01-14T21:02:17.470Z,16.20
2018-01-14T21:04:46.369Z,15.95
2018-01-14T21:07:15.226Z,16.95
2018-01-14T21:09:43.970Z,17.10
2018-01-14T21:12:13.051Z,17.55
2018-01-14T21:14:44.000Z,15.55
2018-01-14T21:17:12.869Z,23.17
2018-01-14T21:19:41.724Z,17.77
2018-01-14T21:22:10.761Z,15.15
2018-01-14T21:24:39.628Z,15.70
2018-01-14T21:27:08.532Z,15.68
2018-01-14T21:29:37.425Z,14.82
2018-01-14T21:32:06.309Z,15.07
2018-01-14T21:34:35.153Z,18.52
2018-01-14T21:37:04.014Z,17.60
2018-01-14T21:39:33.836Z,16.00
2018-01-14T21:42:02.698Z,16.87
2018-01-14T21:44:32.383Z,15.27
2018-01-14T21:47:01.270Z,17.08
2018-01-14T21:49:30.144Z,15.93
2018-01-14T21:51:59.025Z,15.93
2018-01-14T21:54:27.921Z,16.27
2018-01-14T21:56:56.457Z,14.93
2018-01-14T21:59:26.098Z,16.42
2018-01-14T22:01:54.965Z,15.05
2018-01-14T22:04:24.566Z,15.05
2018-01-14T22:06:54.200Z,15.50
2018-01-14T22:09:35.235Z,15.98
2018-01-14T22:12:04.123Z,17.48
2018-01-14T22:14:33.028Z,17.75
2018-01-14T22:17:01.893Z,16.75
2018-01-14T22:19:30.727Z,16.80
2018-01-14T22:22:00.619Z,20.23
2018-01-14T22:24:29.788Z,18.65
2018-01-14T22:27:00.294Z,17.92
2018-01-14T22:29:29.225Z,17.48
2018-01-14T22:31:58.102Z,17.23
2018-01-14T22:34:26.971Z,16.05
2018-01-14T22:36:55.874Z,16.58
2018-01-14T22:39:24.711Z,16.65
2018-01-14T22:41:53.576Z,18.92
2018-01-14T22:44:22.435Z,18.15
2018-01-14T22:46:51.350Z,18.52
2018-01-14T22:49:20.213Z,18.20
2018-01-14T22:51:49.882Z,18.37
2018-01-14T22:54:18.790Z,17.85
2018-01-14T22:56:47.645Z,19.05
2018-01-14T22:59:16.367Z,15.95
2018-01-14T23:01:45.274Z,17.62
2018-01-14T23:04:14.129Z,17.48
2018-01-14T23:06:43.021Z,17.55
2018-01-14T23:09:11.892Z,15.75
2018-01-14T23:11:40.730Z,16.48
2018-01-14T23:14:09.650Z,16.90
2018-01-14T23:16:38.532Z,16.25
2018-01-14T23:19:07.348Z,16.95
2018-01-14T23:21:36.980Z,15.00
2018-01-14T23:24:05.852Z,16.23
2018-01-14T23:26:35.440Z,15.25
2018-01-14T23:29:04.339Z,15.38
2018-01-14T23:31:33.970Z,14.73
2018-01-14T23:34:03.415Z,15.80
2018-01-14T23:36:32.295Z,14.30
2018-01-14T23:39:01.133Z,18.60
2018-01-14T23:41:30.025Z,13.98
2018-01-14T23:43:58.891Z,14.45
2018-01-14T23:46:27.755Z,14.95
2018-01-14T23:48:56.607Z,14.00
2018-01-14T23:51:25.527Z,18.67
2018-01-14T23:53:55.117Z,15.65
2018-01-14T23:56:23.871Z,14.95
2018-01-14T23:58:52.950Z,17.35
